Map

Track Data

SID SEASON NUMBER BASIN SUBBASIN NAME ISO_TIME NATURE LAT LON WMO_WIND WMO_PRES WMO_AGENCY TRACK_TYPE DIST2LAND LANDFALL IFLAG USA_AGENCY USA_ATCF_ID USA_LAT USA_LON USA_RECORD USA_STATUS USA_WIND USA_PRES USA_SSHS USA_R34_NE USA_R34_SE USA_R34_SW USA_R34_NW USA_R50_NE USA_R50_SE USA_R50_SW USA_R50_NW USA_R64_NE USA_R64_SE USA_R64_SW USA_R64_NW USA_POCI USA_ROCI USA_RMW USA_EYE TOKYO_LAT TOKYO_LON TOKYO_GRADE TOKYO_WIND TOKYO_PRES TOKYO_R50_DIR TOKYO_R50_LONG TOKYO_R50_SHORT TOKYO_R30_DIR TOKYO_R30_LONG TOKYO_R30_SHORT TOKYO_LAND CMA_LAT CMA_LON CMA_CAT CMA_WIND CMA_PRES HKO_LAT HKO_LON HKO_CAT HKO_WIND HKO_PRES NEWDELHI_LAT NEWDELHI_LON NEWDELHI_GRADE NEWDELHI_WIND NEWDELHI_PRES NEWDELHI_CI NEWDELHI_DP NEWDELHI_POCI REUNION_LAT REUNION_LON REUNION_TYPE REUNION_WIND REUNION_PRES REUNION_TNUM REUNION_CI REUNION_RMW REUNION_R34_NE REUNION_R34_SE REUNION_R34_SW REUNION_R34_NW REUNION_R50_NE REUNION_R50_SE REUNION_R50_SW REUNION_R50_NW REUNION_R64_NE REUNION_R64_SE REUNION_R64_SW REUNION_R64_NW BOM_LAT BOM_LON BOM_TYPE BOM_WIND BOM_PRES BOM_TNUM BOM_CI BOM_RMW BOM_R34_NE BOM_R34_SE BOM_R34_SW BOM_R34_NW BOM_R50_NE BOM_R50_SE BOM_R50_SW BOM_R50_NW BOM_R64_NE BOM_R64_SE BOM_R64_SW BOM_R64_NW BOM_ROCI BOM_POCI BOM_EYE BOM_POS_METHOD BOM_PRES_METHOD NADI_LAT NADI_LON NADI_CAT NADI_WIND NADI_PRES WELLINGTON_LAT WELLINGTON_LON WELLINGTON_WIND WELLINGTON_PRES DS824_LAT DS824_LON DS824_STAGE DS824_WIND DS824_PRES TD9636_LAT TD9636_LON TD9636_STAGE TD9636_WIND TD9636_PRES TD9635_LAT TD9635_LON TD9635_WIND TD9635_PRES TD9635_ROCI NEUMANN_LAT NEUMANN_LON NEUMANN_CLASS NEUMANN_WIND NEUMANN_PRES MLC_LAT MLC_LON MLC_CLASS MLC_WIND MLC_PRES USA_GUST BOM_GUST BOM_GUST_PER REUNION_GUST REUNION_GUST_PER USA_SEAHGT USA_SEARAD_NE USA_SEARAD_SE USA_SEARAD_SW USA_SEARAD_NW STORM_SPEED STORM_DIR
1918101S13061 1918 32 SI MM NOT_NAMED 1918-04-11 06:00:00 NR -13.4000 61.3000 reunion main 842 807 _____O________ -1 -13.4000 61.3000 99 9.90000 7 192
1918101S13061 1918 32 SI MM NOT_NAMED 1918-04-11 09:00:00 NR -13.7262 61.2248 main 807 777 _____P________ -1 -13.7262 61.2248 99 7 192
1918101S13061 1918 32 SI MM NOT_NAMED 1918-04-11 12:00:00 NR -14.0559 61.1518 main 767 732 _____P________ -1 -14.0559 61.1518 99 7 192
1918101S13061 1918 32 SI MM NOT_NAMED 1918-04-11 15:00:00 NR -14.3924 61.0836 main 732 698 _____P________ -1 -14.3924 61.0836 99 7 190
1918101S13061 1918 32 SI MM NOT_NAMED 1918-04-11 18:00:00 NR -14.7393 61.0225 main 698 659 _____P________ -1 -14.7393 61.0225 99 7 189
1918101S13061 1918 32 SI MM NOT_NAMED 1918-04-11 21:00:00 NR -15.1000 60.9711 main 659 650 _____P________ -1 -15.1000 60.9711 99 5 186
1918101S13061 1918 32 SI MM NOT_NAMED 1918-04-12 00:00:00 TS -15.2225 60.9655 main 650 622 _____P___O____ -1 -15.4781 60.9319 99 -14.2000 61.1000 TC 65 5 178
1918101S13061 1918 32 SI MM NOT_NAMED 1918-04-12 03:00:00 TS -15.5696 60.9990 main 612 582 _____P___P____ -1 -15.8769 60.9073 99 -14.9550 61.1825 TC 65 8 173
1918101S13061 1918 32 SI MM NOT_NAMED 1918-04-12 06:00:00 TS -16.0429 61.0714 reunion main 582 538 _____O___O____ -1 -16.3000 60.9000 99 9.90000 -15.7000 61.3000 TC 65 10 170
1918101S13061 1918 32 SI MM NOT_NAMED 1918-04-12 09:00:00 TS -16.5856 61.1953 main 538 506 _____P___P____ -1 -16.7488 60.9131 99 -16.4225 61.4775 TC 65 11 168
1918101S13061 1918 32 SI MM NOT_NAMED 1918-04-12 12:00:00 TS -17.1581 61.3262 main 499 479 _____P___O____ -1 -17.2163 60.9524 99 -17.1000 61.7000 TC 65 12 167
1918101S13061 1918 32 SI MM NOT_NAMED 1918-04-12 15:00:00 TS -17.7116 61.4722 main 481 461 _____P___P____ -1 -17.6933 61.0242 99 -17.7299 61.9203 TC 65 11 163
1918101S13061 1918 32 SI MM NOT_NAMED 1918-04-12 18:00:00 TS -18.2353 61.6675 main 470 460 _____P___O____ -1 -18.1706 61.1350 99 -18.3000 62.2000 TC 65 11 158
1918101S13061 1918 32 SI MM NOT_NAMED 1918-04-12 21:00:00 TS -18.7307 61.9159 main 465 461 _____P___P____ -1 -18.6392 61.2914 99 -18.8222 62.5404 TC 65 11 150
1918101S13061 1918 32 SI MM NOT_NAMED 1918-04-13 00:00:00 TS -19.1949 62.2500 main 476 476 _____P___O____ -1 -19.0899 61.4999 99 -19.3000 63.0000 TC 65 12 142
1918101S13061 1918 32 SI MM NOT_NAMED 1918-04-13 03:00:00 TS -19.6466 62.6824 main 518 516 _____P___P____ -1 -19.5132 61.7673 99 -19.7799 63.5975 TC 65 12 134
1918101S13061 1918 32 SI MM NOT_NAMED 1918-04-13 06:00:00 TS -20.0500 63.2000 reunion main 564 563 _____O___O____ -1 -19.9000 62.1000 99 9.90000 -20.2000 64.3000 TC 65 13 126
1918101S13061 1918 32 SI MM NOT_NAMED 1918-04-13 09:00:00 TS -20.3864 63.7613 main 625 625 _____P___P____ -1 -20.2432 62.5022 99 -20.5297 65.0205 TC 65 13 119
1918101S13061 1918 32 SI MM NOT_NAMED 1918-04-13 12:00:00 TS -20.6728 64.3839 main 688 688 _____P___O____ -1 -20.5456 62.9678 99 -20.8000 65.8000 TC 65 13 115
1918101S13061 1918 32 SI MM NOT_NAMED 1918-04-13 15:00:00 TS -20.9424 65.0616 main 762 762 _____P___P____ -1 -20.8125 63.4882 99 -21.0723 66.6351 TC 65 12 114
1918101S13061 1918 32 SI MM NOT_NAMED 1918-04-13 18:00:00 TS -21.1566 65.5311 main 806 806 _____P___O____ -1 -21.0491 64.0544 99 -21.3000 67.5000 TC 65 9 117
1918101S13061 1918 32 SI MM NOT_NAMED 1918-04-13 21:00:00 TS -21.3299 65.8901 main 849 849 _____P___P____ -1 -21.2607 64.6577 99 -21.4682 68.3548 TC 65 8 116
1918101S13061 1918 32 SI MM NOT_NAMED 1918-04-14 00:00:00 TS -21.4895 66.2668 main 892 853 _____P___O____ -1 -21.4527 65.2891 99 -21.6000 69.2000 TC 65 3 172
1918101S13061 1918 32 SI MM NOT_NAMED 1918-04-14 03:00:00 NR -21.6306 65.9395 main 853 853 _____P________ -1 -21.6306 65.9395 99 TC 4 135
1918101S13061 1918 32 SI MM NOT_NAMED 1918-04-14 06:00:00 NR -21.8000 66.6000 reunion main 928 _____O________ -1 -21.8000 66.6000 99 9.90000 13 105

About IBTrACS Database

This database is a web-friendly format of International Best Track Archive for Climate Stewardship (IBTrACS), a global best track data archive curated by NOAA dating back to 1842.

Updated: 2021-10-27